sensor_id;sensor_type;location;lat;lon;timestamp;P1;durP1;ratioP1;P2;durP2;ratioP2
10052;SDS011;52418;53.134;8.236;2023-03-01T00:00:09;1.00;;;1.00;;
10052;SDS011;52418;53.134;8.236;2023-03-01T00:02:35;1.00;;;1.00;;
10052;SDS011;52418;53.134;8.236;2023-03-01T00:05:00;0.93;;;0.93;;
10052;SDS011;52418;53.134;8.236;2023-03-01T00:07:25;0.90;;;0.90;;
10052;SDS011;52418;53.134;8.236;2023-03-01T00:09:50;0.90;;;0.90;;
10052;SDS011;52418;53.134;8.236;2023-03-01T00:12:15;1.00;;;1.00;;
10052;SDS011;52418;53.134;8.236;2023-03-01T00:14:41;1.00;;;1.00;;
10052;SDS011;52418;53.134;8.236;2023-03-01T00:17:06;1.00;;;1.00;;
10052;SDS011;52418;53.134;8.236;2023-03-01T00:19:31;1.10;;;1.10;;
10052;SDS011;52418;53.134;8.236;2023-03-01T00:21:57;1.03;;;1.03;;
10052;SDS011;52418;53.134;8.236;2023-03-01T00:24:22;1.00;;;1.00;;
10052;SDS011;52418;53.134;8.236;2023-03-01T00:26:47;0.95;;;0.95;;
10052;SDS011;52418;53.134;8.236;2023-03-01T00:29:13;0.90;;;0.90;;
10052;SDS011;52418;53.134;8.236;2023-03-01T00:31:38;1.00;;;1.00;;
10052;SDS011;52418;53.134;8.236;2023-03-01T00:34:04;1.00;;;1.00;;
10052;SDS011;52418;53.134;8.236;2023-03-01T00:36:31;1.00;;;1.00;;
10052;SDS011;52418;53.134;8.236;2023-03-01T00:38:57;1.00;;;1.00;;
10052;SDS011;52418;53.134;8.236;2023-03-01T00:41:23;1.00;;;1.00;;
10052;SDS011;52418;53.134;8.236;2023-03-01T00:43:48;1.00;;;1.00;;
10052;SDS011;52418;53.134;8.236;2023-03-01T00:46:15;1.03;;;1.03;;
10052;SDS011;52418;53.134;8.236;2023-03-01T00:48:41;1.00;;;1.00;;
10052;SDS011;52418;53.134;8.236;2023-03-01T00:51:07;1.00;;;1.00;;
10052;SDS011;52418;53.134;8.236;2023-03-01T00:53:33;1.00;;;1.00;;
10052;SDS011;52418;53.134;8.236;2023-03-01T00:55:58;1.00;;;1.00;;
10052;SDS011;52418;53.134;8.236;2023-03-01T00:58:23;0.90;;;0.90;;
10052;SDS011;52418;53.134;8.236;2023-03-01T01:00:49;0.90;;;0.90;;
10052;SDS011;52418;53.134;8.236;2023-03-01T01:03:14;1.00;;;1.00;;
10052;SDS011;52418;53.134;8.236;2023-03-01T01:05:40;1.00;;;1.00;;
10052;SDS011;52418;53.134;8.236;2023-03-01T01:08:05;1.00;;;1.00;;
10052;SDS011;52418;53.134;8.236;2023-03-01T01:10:30;1.00;;;1.00;;
10052;SDS011;52418;53.134;8.236;2023-03-01T01:12:58;1.00;;;1.00;;
10052;SDS011;52418;53.134;8.236;2023-03-01T01:15:23;1.00;;;1.00;;
10052;SDS011;52418;53.134;8.236;2023-03-01T01:17:48;0.90;;;0.90;;
10052;SDS011;52418;53.134;8.236;2023-03-01T01:20:13;1.10;;;1.10;;
10052;SDS011;52418;53.134;8.236;2023-03-01T01:22:38;1.00;;;1.00;;
10052;SDS011;52418;53.134;8.236;2023-03-01T01:25:03;1.00;;;1.00;;
10052;SDS011;52418;53.134;8.236;2023-03-01T01:27:29;1.10;;;1.10;;
10052;SDS011;52418;53.134;8.236;2023-03-01T01:29:54;1.00;;;1.00;;
10052;SDS011;52418;53.134;8.236;2023-03-01T01:32:19;1.00;;;1.00;;
10052;SDS011;52418;53.134;8.236;2023-03-01T01:34:44;1.00;;;1.00;;
10052;SDS011;52418;53.134;8.236;2023-03-01T01:37:11;1.00;;;1.00;;
10052;SDS011;52418;53.134;8.236;2023-03-01T01:39:36;1.00;;;1.00;;
10052;SDS011;52418;53.134;8.236;2023-03-01T01:42:01;1.00;;;1.00;;
10052;SDS011;52418;53.134;8.236;2023-03-01T01:44:27;1.00;;;1.00;;
10052;SDS011;52418;53.134;8.236;2023-03-01T01:46:54;1.10;;;1.10;;
10052;SDS011;52418;53.134;8.236;2023-03-01T01:51:49;1.10;;;1.10;;
10052;SDS011;52418;53.134;8.236;2023-03-01T01:54:25;1.07;;;1.07;;
10052;SDS011;52418;53.134;8.236;2023-03-01T01:56:55;0.93;;;0.93;;
10052;SDS011;52418;53.134;8.236;2023-03-01T01:59:23;0.90;;;0.90;;
10052;SDS011;52418;53.134;8.236;2023-03-01T02:01:49;1.00;;;1.00;;
10052;SDS011;52418;53.134;8.236;2023-03-01T02:04:14;1.07;;;1.07;;
10052;SDS011;52418;53.134;8.236;2023-03-01T02:06:41;1.10;;;1.10;;
10052;SDS011;52418;53.134;8.236;2023-03-01T02:09:13;1.03;;;1.03;;
10052;SDS011;52418;53.134;8.236;2023-03-01T02:11:39;1.00;;;1.00;;
10052;SDS011;52418;53.134;8.236;2023-03-01T02:14:04;1.00;;;1.00;;
10052;SDS011;52418;53.134;8.236;2023-03-01T02:16:30;1.10;;;1.10;;
10052;SDS011;52418;53.134;8.236;2023-03-01T02:18:55;1.00;;;1.00;;
10052;SDS011;52418;53.134;8.236;2023-03-01T02:23:59;1.10;;;1.10;;
10052;SDS011;52418;53.134;8.236;2023-03-01T02:26:31;1.00;;;1.00;;
10052;SDS011;52418;53.134;8.236;2023-03-01T02:28:58;1.07;;;1.07;;
10052;SDS011;52418;53.134;8.236;2023-03-01T02:31:24;1.00;;;1.00;;
10052;SDS011;52418;53.134;8.236;2023-03-01T02:34:17;1.00;;;1.00;;
10052;SDS011;52418;53.134;8.236;2023-03-01T02:36:51;1.00;;;1.00;;
10052;SDS011;52418;53.134;8.236;2023-03-01T02:39:20;1.10;;;1.10;;
10052;SDS011;52418;53.134;8.236;2023-03-01T02:41:47;1.10;;;1.10;;
10052;SDS011;52418;53.134;8.236;2023-03-01T02:44:14;1.00;;;1.00;;
10052;SDS011;52418;53.134;8.236;2023-03-01T02:46:47;1.00;;;1.00;;
10052;SDS011;52418;53.134;8.236;2023-03-01T02:49:22;1.00;;;1.00;;
10052;SDS011;52418;53.134;8.236;2023-03-01T02:51:52;1.10;;;1.10;;
10052;SDS011;52418;53.134;8.236;2023-03-01T02:54:22;1.10;;;1.10;;
10052;SDS011;52418;53.134;8.236;2023-03-01T02:56:48;1.10;;;1.10;;
10052;SDS011;52418;53.134;8.236;2023-03-01T02:59:14;1.00;;;1.00;;
10052;SDS011;52418;53.134;8.236;2023-03-01T03:01:40;1.00;;;1.00;;
10052;SDS011;52418;53.134;8.236;2023-03-01T03:04:08;1.00;;;1.00;;
10052;SDS011;52418;53.134;8.236;2023-03-01T03:06:35;1.00;;;1.00;;
10052;SDS011;52418;53.134;8.236;2023-03-01T03:09:00;1.10;;;1.10;;
10052;SDS011;52418;53.134;8.236;2023-03-01T03:11:26;1.00;;;1.00;;
10052;SDS011;52418;53.134;8.236;2023-03-01T03:13:51;1.00;;;1.00;;
10052;SDS011;52418;53.134;8.236;2023-03-01T03:16:18;1.00;;;1.00;;
10052;SDS011;52418;53.134;8.236;2023-03-01T03:18:44;1.00;;;1.00;;
10052;SDS011;52418;53.134;8.236;2023-03-01T03:21:10;1.00;;;1.00;;
10052;SDS011;52418;53.134;8.236;2023-03-01T03:23:36;1.10;;;1.10;;
10052;SDS011;52418;53.134;8.236;2023-03-01T03:26:01;1.00;;;1.00;;
10052;SDS011;52418;53.134;8.236;2023-03-01T03:28:29;1.00;;;1.00;;
10052;SDS011;52418;53.134;8.236;2023-03-01T03:30:55;0.93;;;0.93;;
10052;SDS011;52418;53.134;8.236;2023-03-01T03:33:20;0.90;;;0.90;;
10052;SDS011;52418;53.134;8.236;2023-03-01T03:35:46;1.00;;;1.00;;
10052;SDS011;52418;53.134;8.236;2023-03-01T03:38:12;0.90;;;0.90;;
10052;SDS011;52418;53.134;8.236;2023-03-01T03:40:48;1.00;;;1.00;;
10052;SDS011;52418;53.134;8.236;2023-03-01T03:43:17;0.90;;;0.90;;
10052;SDS011;52418;53.134;8.236;2023-03-01T03:45:43;0.97;;;0.97;;
10052;SDS011;52418;53.134;8.236;2023-03-01T03:48:09;0.90;;;0.90;;
10052;SDS011;52418;53.134;8.236;2023-03-01T03:50:35;1.00;;;1.00;;
10052;SDS011;52418;53.134;8.236;2023-03-01T03:53:00;1.00;;;1.00;;
10052;SDS011;52418;53.134;8.236;2023-03-01T03:55:26;1.00;;;1.00;;
10052;SDS011;52418;53.134;8.236;2023-03-01T03:57:55;1.00;;;1.00;;
10052;SDS011;52418;53.134;8.236;2023-03-01T04:00:21;1.00;;;1.00;;
10052;SDS011;52418;53.134;8.236;2023-03-01T04:02:49;0.97;;;0.97;;
10052;SDS011;52418;53.134;8.236;2023-03-01T04:05:15;0.90;;;0.90;;
10052;SDS011;52418;53.134;8.236;2023-03-01T04:07:41;1.00;;;1.00;;
10052;SDS011;52418;53.134;8.236;2023-03-01T04:10:08;1.00;;;1.00;;
10052;SDS011;52418;53.134;8.236;2023-03-01T04:12:34;1.00;;;1.00;;
10052;SDS011;52418;53.134;8.236;2023-03-01T04:15:00;1.10;;;1.10;;
10052;SDS011;52418;53.134;8.236;2023-03-01T04:17:25;1.00;;;1.00;;
10052;SDS011;52418;53.134;8.236;2023-03-01T04:19:50;1.00;;;1.00;;
10052;SDS011;52418;53.134;8.236;2023-03-01T04:22:15;1.00;;;1.00;;
10052;SDS011;52418;53.134;8.236;2023-03-01T04:24:43;0.93;;;0.93;;
10052;SDS011;52418;53.134;8.236;2023-03-01T04:27:08;1.00;;;1.00;;
10052;SDS011;52418;53.134;8.236;2023-03-01T04:29:33;1.03;;;1.03;;
10052;SDS011;52418;53.134;8.236;2023-03-01T04:31:58;1.00;;;1.00;;
10052;SDS011;52418;53.134;8.236;2023-03-01T04:34:24;1.00;;;1.00;;
10052;SDS011;52418;53.134;8.236;2023-03-01T04:36:51;1.07;;;1.07;;
10052;SDS011;52418;53.134;8.236;2023-03-01T04:39:16;0.93;;;0.93;;
10052;SDS011;52418;53.134;8.236;2023-03-01T04:41:41;0.97;;;0.97;;
10052;SDS011;52418;53.134;8.236;2023-03-01T04:44:08;1.10;;;1.10;;
10052;SDS011;52418;53.134;8.236;2023-03-01T04:46:34;1.00;;;1.00;;
10052;SDS011;52418;53.134;8.236;2023-03-01T04:48:59;1.10;;;1.10;;
10052;SDS011;52418;53.134;8.236;2023-03-01T04:51:24;1.00;;;1.00;;
10052;SDS011;52418;53.134;8.236;2023-03-01T04:53:49;1.10;;;1.10;;
10052;SDS011;52418;53.134;8.236;2023-03-01T04:56:15;1.00;;;1.00;;
10052;SDS011;52418;53.134;8.236;2023-03-01T04:58:40;0.90;;;0.90;;
10052;SDS011;52418;53.134;8.236;2023-03-01T05:01:13;1.00;;;1.00;;
10052;SDS011;52418;53.134;8.236;2023-03-01T05:03:42;0.90;;;0.90;;
10052;SDS011;52418;53.134;8.236;2023-03-01T05:06:07;1.00;;;1.00;;
10052;SDS011;52418;53.134;8.236;2023-03-01T05:08:33;1.00;;;1.00;;
10052;SDS011;52418;53.134;8.236;2023-03-01T05:10:59;0.90;;;0.90;;
10052;SDS011;52418;53.134;8.236;2023-03-01T05:13:24;1.00;;;1.00;;
10052;SDS011;52418;53.134;8.236;2023-03-01T05:15:56;1.00;;;1.00;;
10052;SDS011;52418;53.134;8.236;2023-03-01T05:18:23;0.90;;;0.90;;
10052;SDS011;52418;53.134;8.236;2023-03-01T05:20:50;1.00;;;1.00;;
10052;SDS011;52418;53.134;8.236;2023-03-01T05:23:18;1.00;;;1.00;;
10052;SDS011;52418;53.134;8.236;2023-03-01T05:25:43;1.00;;;1.00;;
10052;SDS011;52418;53.134;8.236;2023-03-01T05:28:11;1.00;;;1.00;;
10052;SDS011;52418;53.134;8.236;2023-03-01T05:30:37;1.00;;;1.00;;
10052;SDS011;52418;53.134;8.236;2023-03-01T05:33:04;1.00;;;1.00;;
10052;SDS011;52418;53.134;8.236;2023-03-01T05:35:31;1.00;;;1.00;;
10052;SDS011;52418;53.134;8.236;2023-03-01T05:37:57;1.00;;;1.00;;
10052;SDS011;52418;53.134;8.236;2023-03-01T05:40:23;1.00;;;1.00;;
10052;SDS011;52418;53.134;8.236;2023-03-01T05:42:50;1.00;;;1.00;;
10052;SDS011;52418;53.134;8.236;2023-03-01T05:45:16;1.10;;;1.10;;
10052;SDS011;52418;53.134;8.236;2023-03-01T05:47:42;1.10;;;1.10;;
10052;SDS011;52418;53.134;8.236;2023-03-01T05:50:10;1.00;;;1.00;;
10052;SDS011;52418;53.134;8.236;2023-03-01T05:52:35;1.00;;;1.00;;
10052;SDS011;52418;53.134;8.236;2023-03-01T05:55:00;1.10;;;1.10;;
10052;SDS011;52418;53.134;8.236;2023-03-01T05:57:27;1.10;;;1.10;;
10052;SDS011;52418;53.134;8.236;2023-03-01T05:59:52;1.00;;;1.00;;
10052;SDS011;52418;53.134;8.236;2023-03-01T06:02:17;1.10;;;1.10;;
10052;SDS011;52418;53.134;8.236;2023-03-01T06:04:43;1.10;;;1.10;;
10052;SDS011;52418;53.134;8.236;2023-03-01T06:07:08;1.13;;;1.13;;
10052;SDS011;52418;53.134;8.236;2023-03-01T06:09:33;1.10;;;1.10;;
10052;SDS011;52418;53.134;8.236;2023-03-01T06:11:58;1.10;;;1.10;;
10052;SDS011;52418;53.134;8.236;2023-03-01T06:14:24;1.00;;;1.00;;
10052;SDS011;52418;53.134;8.236;2023-03-01T06:16:50;1.00;;;1.00;;
10052;SDS011;52418;53.134;8.236;2023-03-01T06:19:15;1.00;;;1.00;;
10052;SDS011;52418;53.134;8.236;2023-03-01T06:21:40;1.00;;;1.00;;
10052;SDS011;52418;53.134;8.236;2023-03-01T06:24:05;0.90;;;0.90;;
10052;SDS011;52418;53.134;8.236;2023-03-01T06:26:32;1.00;;;1.00;;
10052;SDS011;52418;53.134;8.236;2023-03-01T06:28:57;0.90;;;0.90;;
10052;SDS011;52418;53.134;8.236;2023-03-01T06:31:22;0.80;;;0.80;;
10052;SDS011;52418;53.134;8.236;2023-03-01T06:33:47;0.90;;;0.90;;
10052;SDS011;52418;53.134;8.236;2023-03-01T06:36:12;0.90;;;0.90;;
10052;SDS011;52418;53.134;8.236;2023-03-01T06:38:38;0.90;;;0.90;;
10052;SDS011;52418;53.134;8.236;2023-03-01T06:41:06;0.90;;;0.90;;
10052;SDS011;52418;53.134;8.236;2023-03-01T06:43:31;0.90;;;0.90;;
10052;SDS011;52418;53.134;8.236;2023-03-01T06:45:58;1.00;;;1.00;;
10052;SDS011;52418;53.134;8.236;2023-03-01T06:48:23;0.90;;;0.90;;
10052;SDS011;52418;53.134;8.236;2023-03-01T06:50:48;0.90;;;0.90;;
10052;SDS011;52418;53.134;8.236;2023-03-01T06:53:13;0.93;;;0.93;;
10052;SDS011;52418;53.134;8.236;2023-03-01T06:55:39;0.97;;;0.97;;
10052;SDS011;52418;53.134;8.236;2023-03-01T06:58:04;0.80;;;0.80;;
10052;SDS011;52418;53.134;8.236;2023-03-01T07:00:30;1.00;;;1.00;;
10052;SDS011;52418;53.134;8.236;2023-03-01T07:02:57;0.80;;;0.80;;
10052;SDS011;52418;53.134;8.236;2023-03-01T07:05:25;0.80;;;0.80;;
10052;SDS011;52418;53.134;8.236;2023-03-01T07:07:50;0.90;;;0.90;;
10052;SDS011;52418;53.134;8.236;2023-03-01T07:10:15;0.90;;;0.90;;
10052;SDS011;52418;53.134;8.236;2023-03-01T07:12:40;0.97;;;0.97;;
10052;SDS011;52418;53.134;8.236;2023-03-01T07:15:06;0.90;;;0.90;;
10052;SDS011;52418;53.134;8.236;2023-03-01T07:17:34;1.00;;;1.00;;
10052;SDS011;52418;53.134;8.236;2023-03-01T07:19:59;0.90;;;0.90;;
10052;SDS011;52418;53.134;8.236;2023-03-01T07:22:24;0.90;;;0.90;;
10052;SDS011;52418;53.134;8.236;2023-03-01T07:24:50;0.90;;;0.90;;
10052;SDS011;52418;53.134;8.236;2023-03-01T07:27:15;0.80;;;0.80;;
10052;SDS011;52418;53.134;8.236;2023-03-01T07:29:40;0.90;;;0.90;;
10052;SDS011;52418;53.134;8.236;2023-03-01T07:32:05;0.90;;;0.90;;
10052;SDS011;52418;53.134;8.236;2023-03-01T07:34:30;1.00;;;1.00;;
10052;SDS011;52418;53.134;8.236;2023-03-01T07:36:56;1.00;;;1.00;;
10052;SDS011;52418;53.134;8.236;2023-03-01T07:39:21;1.00;;;1.00;;
10052;SDS011;52418;53.134;8.236;2023-03-01T07:41:48;0.90;;;0.90;;
10052;SDS011;52418;53.134;8.236;2023-03-01T07:44:13;0.90;;;0.90;;
10052;SDS011;52418;53.134;8.236;2023-03-01T07:46:38;1.00;;;1.00;;
10052;SDS011;52418;53.134;8.236;2023-03-01T07:49:03;0.90;;;0.90;;
10052;SDS011;52418;53.134;8.236;2023-03-01T07:51:29;0.97;;;0.97;;
10052;SDS011;52418;53.134;8.236;2023-03-01T07:53:54;1.10;;;1.10;;
10052;SDS011;52418;53.134;8.236;2023-03-01T07:56:19;1.00;;;1.00;;
10052;SDS011;52418;53.134;8.236;2023-03-01T07:58:46;1.10;;;1.10;;
10052;SDS011;52418;53.134;8.236;2023-03-01T08:01:13;0.90;;;0.90;;
10052;SDS011;52418;53.134;8.236;2023-03-01T08:03:38;1.00;;;1.00;;
10052;SDS011;52418;53.134;8.236;2023-03-01T08:06:04;1.10;;;1.10;;
10052;SDS011;52418;53.134;8.236;2023-03-01T08:08:30;1.10;;;1.10;;
10052;SDS011;52418;53.134;8.236;2023-03-01T08:10:56;1.10;;;1.10;;
10052;SDS011;52418;53.134;8.236;2023-03-01T08:13:21;1.00;;;1.00;;
10052;SDS011;52418;53.134;8.236;2023-03-01T08:15:47;1.10;;;1.10;;
10052;SDS011;52418;53.134;8.236;2023-03-01T08:18:13;1.00;;;1.00;;
10052;SDS011;52418;53.134;8.236;2023-03-01T08:20:38;1.10;;;1.10;;
10052;SDS011;52418;53.134;8.236;2023-03-01T08:23:03;1.00;;;1.00;;
10052;SDS011;52418;53.134;8.236;2023-03-01T08:25:28;1.00;;;1.00;;
10052;SDS011;52418;53.134;8.236;2023-03-01T08:27:53;1.00;;;1.00;;
10052;SDS011;52418;53.134;8.236;2023-03-01T08:30:18;1.00;;;1.00;;
10052;SDS011;52418;53.134;8.236;2023-03-01T08:32:45;1.10;;;1.10;;
10052;SDS011;52418;53.134;8.236;2023-03-01T08:35:10;1.00;;;1.00;;
10052;SDS011;52418;53.134;8.236;2023-03-01T08:37:35;1.00;;;1.00;;
10052;SDS011;52418;53.134;8.236;2023-03-01T08:40:00;1.00;;;1.00;;
10052;SDS011;52418;53.134;8.236;2023-03-01T08:42:26;0.90;;;0.90;;
10052;SDS011;52418;53.134;8.236;2023-03-01T08:44:51;1.10;;;1.10;;
10052;SDS011;52418;53.134;8.236;2023-03-01T08:47:16;1.00;;;1.00;;
10052;SDS011;52418;53.134;8.236;2023-03-01T08:49:41;1.00;;;1.00;;
10052;SDS011;52418;53.134;8.236;2023-03-01T08:52:07;1.03;;;1.03;;
10052;SDS011;52418;53.134;8.236;2023-03-01T08:54:32;1.00;;;1.00;;
10052;SDS011;52418;53.134;8.236;2023-03-01T08:56:57;0.97;;;0.97;;
10052;SDS011;52418;53.134;8.236;2023-03-01T08:59:24;0.90;;;0.90;;
10052;SDS011;52418;53.134;8.236;2023-03-01T09:01:50;1.10;;;1.10;;
10052;SDS011;52418;53.134;8.236;2023-03-01T09:04:15;1.10;;;1.10;;
10052;SDS011;52418;53.134;8.236;2023-03-01T09:06:40;1.10;;;1.10;;
10052;SDS011;52418;53.134;8.236;2023-03-01T09:09:06;1.10;;;1.10;;
10052;SDS011;52418;53.134;8.236;2023-03-01T09:11:32;1.10;;;1.10;;
10052;SDS011;52418;53.134;8.236;2023-03-01T09:13:58;1.17;;;1.17;;
10052;SDS011;52418;53.134;8.236;2023-03-01T09:16:23;1.23;;;1.23;;
10052;SDS011;52418;53.134;8.236;2023-03-01T09:18:49;1.10;;;1.10;;
10052;SDS011;52418;53.134;8.236;2023-03-01T09:21:15;1.23;;;1.23;;
10052;SDS011;52418;53.134;8.236;2023-03-01T09:23:42;1.00;;;1.00;;
10052;SDS011;52418;53.134;8.236;2023-03-01T09:26:08;1.00;;;1.00;;
10052;SDS011;52418;53.134;8.236;2023-03-01T09:28:34;1.10;;;1.10;;
10052;SDS011;52418;53.134;8.236;2023-03-01T09:31:00;1.20;;;1.20;;
10052;SDS011;52418;53.134;8.236;2023-03-01T09:33:25;1.20;;;1.20;;
10052;SDS011;52418;53.134;8.236;2023-03-01T09:35:55;1.30;;;1.30;;
10052;SDS011;52418;53.134;8.236;2023-03-01T09:38:20;1.20;;;1.20;;
10052;SDS011;52418;53.134;8.236;2023-03-01T09:40:46;1.20;;;1.20;;
10052;SDS011;52418;53.134;8.236;2023-03-01T09:43:23;1.20;;;1.20;;
10052;SDS011;52418;53.134;8.236;2023-03-01T09:45:50;1.20;;;1.20;;
10052;SDS011;52418;53.134;8.236;2023-03-01T09:48:19;1.20;;;1.20;;
10052;SDS011;52418;53.134;8.236;2023-03-01T09:50:47;1.10;;;1.10;;
10052;SDS011;52418;53.134;8.236;2023-03-01T09:53:13;1.20;;;1.20;;
10052;SDS011;52418;53.134;8.236;2023-03-01T09:55:43;1.20;;;1.20;;
10052;SDS011;52418;53.134;8.236;2023-03-01T10:00:43;1.17;;;1.17;;
10052;SDS011;52418;53.134;8.236;2023-03-01T10:10:55;1.20;;;1.20;;
10052;SDS011;52418;53.134;8.236;2023-03-01T10:13:23;1.20;;;1.20;;
10052;SDS011;52418;53.134;8.236;2023-03-01T10:15:50;1.20;;;1.20;;
10052;SDS011;52418;53.134;8.236;2023-03-01T10:18:20;1.10;;;1.10;;
10052;SDS011;52418;53.134;8.236;2023-03-01T10:20:46;1.10;;;1.10;;
10052;SDS011;52418;53.134;8.236;2023-03-01T10:23:15;1.20;;;1.20;;
10052;SDS011;52418;53.134;8.236;2023-03-01T10:25:46;1.20;;;1.20;;
10052;SDS011;52418;53.134;8.236;2023-03-01T10:30:40;1.00;;;1.00;;
10052;SDS011;52418;53.134;8.236;2023-03-01T10:33:16;1.10;;;1.10;;
10052;SDS011;52418;53.134;8.236;2023-03-01T10:35:42;1.00;;;1.00;;
10052;SDS011;52418;53.134;8.236;2023-03-01T10:38:08;1.20;;;1.20;;
10052;SDS011;52418;53.134;8.236;2023-03-01T10:40:35;1.17;;;1.17;;
10052;SDS011;52418;53.134;8.236;2023-03-01T10:43:01;1.20;;;1.20;;
10052;SDS011;52418;53.134;8.236;2023-03-01T10:48:05;1.20;;;1.20;;
10052;SDS011;52418;53.134;8.236;2023-03-01T10:50:31;1.10;;;1.10;;
10052;SDS011;52418;53.134;8.236;2023-03-01T10:53:00;1.10;;;1.10;;
10052;SDS011;52418;53.134;8.236;2023-03-01T11:00:45;1.10;;;1.10;;
10052;SDS011;52418;53.134;8.236;2023-03-01T11:03:12;1.00;;;1.00;;
10052;SDS011;52418;53.134;8.236;2023-03-01T11:05:44;0.90;;;0.90;;
10052;SDS011;52418;53.134;8.236;2023-03-01T11:08:15;1.10;;;1.10;;
10052;SDS011;52418;53.134;8.236;2023-03-01T11:11:02;1.10;;;1.10;;
10052;SDS011;52418;53.134;8.236;2023-03-01T11:13:29;1.13;;;1.13;;
10052;SDS011;52418;53.134;8.236;2023-03-01T11:15:58;1.00;;;1.00;;
10052;SDS011;52418;53.134;8.236;2023-03-01T11:18:24;1.20;;;1.20;;
10052;SDS011;52418;53.134;8.236;2023-03-01T11:20:51;1.00;;;1.00;;
10052;SDS011;52418;53.134;8.236;2023-03-01T11:23:18;1.20;;;1.20;;
10052;SDS011;52418;53.134;8.236;2023-03-01T11:25:46;1.10;;;1.10;;
10052;SDS011;52418;53.134;8.236;2023-03-01T11:28:14;1.20;;;1.20;;
10052;SDS011;52418;53.134;8.236;2023-03-01T11:35:31;1.10;;;1.10;;
10052;SDS011;52418;53.134;8.236;2023-03-01T11:38:07;1.20;;;1.20;;
10052;SDS011;52418;53.134;8.236;2023-03-01T11:40:39;1.20;;;1.20;;
10052;SDS011;52418;53.134;8.236;2023-03-01T11:43:14;1.10;;;1.10;;
10052;SDS011;52418;53.134;8.236;2023-03-01T11:45:55;1.20;;;1.20;;
10052;SDS011;52418;53.134;8.236;2023-03-01T11:50:57;1.10;;;1.10;;
10052;SDS011;52418;53.134;8.236;2023-03-01T11:53:44;1.20;;;1.20;;
10052;SDS011;52418;53.134;8.236;2023-03-01T11:56:34;1.00;;;1.00;;
10052;SDS011;52418;53.134;8.236;2023-03-01T12:06:47;1.07;;;1.07;;
10052;SDS011;52418;53.134;8.236;2023-03-01T12:09:17;1.20;;;1.20;;
10052;SDS011;52418;53.134;8.236;2023-03-01T12:14:32;1.10;;;1.10;;
10052;SDS011;52418;53.134;8.236;2023-03-01T12:17:16;1.20;;;1.20;;
10052;SDS011;52418;53.134;8.236;2023-03-01T12:22:29;1.20;;;1.20;;
10052;SDS011;52418;53.134;8.236;2023-03-01T12:29:59;1.00;;;1.00;;
10052;SDS011;52418;53.134;8.236;2023-03-01T12:43:12;1.10;;;1.10;;
10052;SDS011;52418;53.134;8.236;2023-03-01T12:45:44;1.10;;;1.10;;
10052;SDS011;52418;53.134;8.236;2023-03-01T12:50:54;1.10;;;1.10;;
10052;SDS011;52418;53.134;8.236;2023-03-01T12:53:31;1.20;;;1.20;;
10052;SDS011;52418;53.134;8.236;2023-03-01T12:56:32;1.00;;;1.00;;
10052;SDS011;52418;53.134;8.236;2023-03-01T13:01:35;1.10;;;1.10;;
10052;SDS011;52418;53.134;8.236;2023-03-01T13:11:46;1.20;;;1.20;;
10052;SDS011;52418;53.134;8.236;2023-03-01T13:16:46;1.20;;;1.20;;
10052;SDS011;52418;53.134;8.236;2023-03-01T13:21:42;1.13;;;1.13;;
10052;SDS011;52418;53.134;8.236;2023-03-01T13:32:32;1.10;;;1.10;;
10052;SDS011;52418;53.134;8.236;2023-03-01T13:34:59;1.23;;;1.23;;
10052;SDS011;52418;53.134;8.236;2023-03-01T13:37:29;1.10;;;1.10;;
10052;SDS011;52418;53.134;8.236;2023-03-01T13:39:56;1.10;;;1.10;;
10052;SDS011;52418;53.134;8.236;2023-03-01T13:48:11;1.10;;;1.10;;
10052;SDS011;52418;53.134;8.236;2023-03-01T13:51:00;1.20;;;1.20;;
10052;SDS011;52418;53.134;8.236;2023-03-01T13:53:28;1.10;;;1.10;;
10052;SDS011;52418;53.134;8.236;2023-03-01T13:55:58;1.20;;;1.20;;
10052;SDS011;52418;53.134;8.236;2023-03-01T13:58:32;1.20;;;1.20;;
10052;SDS011;52418;53.134;8.236;2023-03-01T14:01:02;1.10;;;1.10;;
10052;SDS011;52418;53.134;8.236;2023-03-01T14:03:29;1.10;;;1.10;;
10052;SDS011;52418;53.134;8.236;2023-03-01T14:05:59;1.10;;;1.10;;
10052;SDS011;52418;53.134;8.236;2023-03-01T14:08:32;1.10;;;1.10;;
10052;SDS011;52418;53.134;8.236;2023-03-01T14:11:20;1.10;;;1.10;;
10052;SDS011;52418;53.134;8.236;2023-03-01T14:19:12;1.20;;;1.20;;
10052;SDS011;52418;53.134;8.236;2023-03-01T14:21:39;1.10;;;1.10;;
10052;SDS011;52418;53.134;8.236;2023-03-01T14:24:05;1.10;;;1.10;;
10052;SDS011;52418;53.134;8.236;2023-03-01T14:26:31;1.20;;;1.20;;
10052;SDS011;52418;53.134;8.236;2023-03-01T14:28:56;1.30;;;1.30;;
10052;SDS011;52418;53.134;8.236;2023-03-01T14:31:32;1.20;;;1.20;;
10052;SDS011;52418;53.134;8.236;2023-03-01T14:36:29;1.10;;;1.10;;
10052;SDS011;52418;53.134;8.236;2023-03-01T14:38:55;1.20;;;1.20;;
10052;SDS011;52418;53.134;8.236;2023-03-01T14:41:21;1.07;;;1.07;;
10052;SDS011;52418;53.134;8.236;2023-03-01T14:43:51;1.10;;;1.10;;
10052;SDS011;52418;53.134;8.236;2023-03-01T14:46:23;1.10;;;1.10;;
10052;SDS011;52418;53.134;8.236;2023-03-01T14:48:50;1.20;;;1.20;;
10052;SDS011;52418;53.134;8.236;2023-03-01T14:51:18;1.10;;;1.10;;
10052;SDS011;52418;53.134;8.236;2023-03-01T14:53:46;1.00;;;1.00;;
10052;SDS011;52418;53.134;8.236;2023-03-01T14:56:12;1.00;;;1.00;;
10052;SDS011;52418;53.134;8.236;2023-03-01T14:58:38;1.00;;;1.00;;
10052;SDS011;52418;53.134;8.236;2023-03-01T15:03:49;1.13;;;1.13;;
10052;SDS011;52418;53.134;8.236;2023-03-01T15:06:19;1.10;;;1.10;;
10052;SDS011;52418;53.134;8.236;2023-03-01T15:08:51;1.20;;;1.20;;
10052;SDS011;52418;53.134;8.236;2023-03-01T15:11:22;1.00;;;1.00;;
10052;SDS011;52418;53.134;8.236;2023-03-01T15:13:49;1.10;;;1.10;;
10052;SDS011;52418;53.134;8.236;2023-03-01T15:16:17;1.10;;;1.10;;
10052;SDS011;52418;53.134;8.236;2023-03-01T15:18:45;1.10;;;1.10;;
10052;SDS011;52418;53.134;8.236;2023-03-01T15:21:25;1.10;;;1.10;;
10052;SDS011;52418;53.134;8.236;2023-03-01T15:23:56;1.03;;;1.03;;
10052;SDS011;52418;53.134;8.236;2023-03-01T15:26:29;1.00;;;1.00;;
10052;SDS011;52418;53.134;8.236;2023-03-01T15:28:55;1.20;;;1.20;;
10052;SDS011;52418;53.134;8.236;2023-03-01T15:31:34;1.13;;;1.13;;
10052;SDS011;52418;53.134;8.236;2023-03-01T15:34:09;1.10;;;1.10;;
10052;SDS011;52418;53.134;8.236;2023-03-01T15:36:43;1.10;;;1.10;;
10052;SDS011;52418;53.134;8.236;2023-03-01T15:41:53;1.00;;;1.00;;
10052;SDS011;52418;53.134;8.236;2023-03-01T15:44:25;1.00;;;1.00;;
10052;SDS011;52418;53.134;8.236;2023-03-01T15:46:51;1.00;;;1.00;;
10052;SDS011;52418;53.134;8.236;2023-03-01T15:49:33;1.00;;;1.00;;
10052;SDS011;52418;53.134;8.236;2023-03-01T15:51:59;1.00;;;1.00;;
10052;SDS011;52418;53.134;8.236;2023-03-01T15:54:24;1.00;;;1.00;;
10052;SDS011;52418;53.134;8.236;2023-03-01T15:56:52;1.00;;;1.00;;
10052;SDS011;52418;53.134;8.236;2023-03-01T15:59:18;1.00;;;1.00;;
10052;SDS011;52418;53.134;8.236;2023-03-01T16:01:44;1.00;;;1.00;;
10052;SDS011;52418;53.134;8.236;2023-03-01T16:04:14;1.00;;;1.00;;
10052;SDS011;52418;53.134;8.236;2023-03-01T16:06:49;1.00;;;1.00;;
10052;SDS011;52418;53.134;8.236;2023-03-01T16:09:19;1.00;;;1.00;;
10052;SDS011;52418;53.134;8.236;2023-03-01T16:11:44;1.00;;;1.00;;
10052;SDS011;52418;53.134;8.236;2023-03-01T16:14:09;0.97;;;0.97;;
10052;SDS011;52418;53.134;8.236;2023-03-01T16:16:35;1.00;;;1.00;;
10052;SDS011;52418;53.134;8.236;2023-03-01T16:19:01;1.10;;;1.10;;
10052;SDS011;52418;53.134;8.236;2023-03-01T16:21:27;1.10;;;1.10;;
10052;SDS011;52418;53.134;8.236;2023-03-01T16:23:52;0.97;;;0.97;;
10052;SDS011;52418;53.134;8.236;2023-03-01T16:26:18;0.90;;;0.90;;
10052;SDS011;52418;53.134;8.236;2023-03-01T16:28:44;1.00;;;1.00;;
10052;SDS011;52418;53.134;8.236;2023-03-01T16:31:09;1.00;;;1.00;;
10052;SDS011;52418;53.134;8.236;2023-03-01T16:33:35;0.93;;;0.93;;
10052;SDS011;52418;53.134;8.236;2023-03-01T16:36:05;0.90;;;0.90;;